createdAt,value
2023-01-19T00:01:31.881Z,93.34
2023-01-19T00:06:25.501Z,93.50
2023-01-19T00:11:22.195Z,92.64
2023-01-19T00:16:27.739Z,93.25
2023-01-19T00:18:54.499Z,93.68
2023-01-19T00:21:22.357Z,94.09
2023-01-19T00:26:18.932Z,94.11
2023-01-19T00:31:15.045Z,93.23
2023-01-19T00:33:41.723Z,93.14
2023-01-19T00:36:09.185Z,94.25
2023-01-19T00:38:36.096Z,93.67
2023-01-19T00:41:02.959Z,93.78
2023-01-19T00:43:29.704Z,93.32
2023-01-19T00:48:23.163Z,92.91
2023-01-19T00:53:16.878Z,93.20
2023-01-19T00:55:43.605Z,93.18
2023-01-19T00:58:10.957Z,93.37
2023-01-19T01:03:05.289Z,93.64
2023-01-19T01:05:32.249Z,93.73
2023-01-19T01:07:59.120Z,93.96
2023-01-19T01:10:28.676Z,94.12
2023-01-19T01:15:23.552Z,94.38
2023-01-19T01:17:53.115Z,94.06
2023-01-19T01:20:27.960Z,93.83
2023-01-19T01:25:25.150Z,93.06
2023-01-19T01:27:52.968Z,93.46
2023-01-19T01:30:20.834Z,93.22
2023-01-19T01:32:47.613Z,93.40
2023-01-19T01:35:14.962Z,93.08
2023-01-19T01:37:44.794Z,93.36
2023-01-19T01:40:14.217Z,93.70
2023-01-19T01:42:42.684Z,93.41
2023-01-19T01:45:28.661Z,93.70
2023-01-19T01:48:01.729Z,93.46
2023-01-19T01:50:32.879Z,93.88
2023-01-19T01:53:07.974Z,93.63
2023-01-19T01:55:49.379Z,92.67
2023-01-19T01:58:17.074Z,92.93
2023-01-19T02:03:29.741Z,92.44
2023-01-19T02:06:02.095Z,91.92
2023-01-19T02:08:53.874Z,92.69
2023-01-19T02:11:41.088Z,92.77
2023-01-19T02:14:08.300Z,92.80
2023-01-19T02:16:40.315Z,93.06
2023-01-19T02:19:12.596Z,93.33
2023-01-19T02:22:16.871Z,93.31
2023-01-19T02:27:12.331Z,93.51
2023-01-19T02:29:42.225Z,93.98
2023-01-19T02:32:09.452Z,93.48
2023-01-19T02:34:39.546Z,93.29
2023-01-19T02:37:13.536Z,93.21
2023-01-19T02:40:02.045Z,93.38
2023-01-19T02:42:50.739Z,93.22
2023-01-19T02:45:21.859Z,93.13
2023-01-19T02:47:49.925Z,92.99
2023-01-19T02:50:39.309Z,92.94
2023-01-19T02:53:45.846Z,93.32
2023-01-19T02:56:25.074Z,93.59
2023-01-19T02:59:13.021Z,93.49
2023-01-19T03:04:35.375Z,94.02
2023-01-19T03:07:14.379Z,94.49
2023-01-19T03:09:59.435Z,94.29
2023-01-19T03:16:00.311Z,94.14
2023-01-19T03:18:51.558Z,93.95
2023-01-19T03:21:20.336Z,93.39
2023-01-19T03:23:50.006Z,93.31
2023-01-19T03:26:22.959Z,93.47
2023-01-19T03:28:51.679Z,93.49
2023-01-19T03:31:24.292Z,93.64
2023-01-19T03:33:58.443Z,93.61
2023-01-19T03:36:57.210Z,93.59
2023-01-19T03:39:26.731Z,93.83
2023-01-19T03:42:00.361Z,93.59
2023-01-19T03:44:29.566Z,93.55
2023-01-19T03:49:26.691Z,93.80
2023-01-19T03:51:59.056Z,93.65
2023-01-19T03:54:26.660Z,93.46
2023-01-19T03:59:21.810Z,93.79
2023-01-19T04:01:48.749Z,93.51
2023-01-19T04:04:15.912Z,93.93
2023-01-19T04:06:43.423Z,93.91
2023-01-19T04:09:10.422Z,94.11
2023-01-19T04:14:06.224Z,94.72
2023-01-19T04:16:33.788Z,94.76
2023-01-19T04:21:32.872Z,94.23
2023-01-19T04:23:59.811Z,93.93
2023-01-19T04:26:26.567Z,94.00
2023-01-19T04:31:21.094Z,94.07
2023-01-19T04:33:47.864Z,94.24
2023-01-19T04:41:08.480Z,94.02
2023-01-19T04:46:02.320Z,93.96
2023-01-19T04:48:36.085Z,93.59
2023-01-19T04:51:03.209Z,94.00
2023-01-19T04:53:29.973Z,94.05
2023-01-19T04:55:57.021Z,93.46
2023-01-19T05:00:51.278Z,94.14
2023-01-19T05:03:19.335Z,93.84
2023-01-19T05:05:46.486Z,93.51
2023-01-19T05:08:13.704Z,93.45
2023-01-19T05:13:07.390Z,93.69
2023-01-19T05:15:34.129Z,93.95
2023-01-19T05:18:00.917Z,94.01
2023-01-19T05:20:29.171Z,94.10
2023-01-19T05:25:25.510Z,93.97
2023-01-19T05:32:49.291Z,94.50
2023-01-19T05:35:20.227Z,94.20
2023-01-19T05:37:49.206Z,93.49
2023-01-19T05:40:16.364Z,93.38
2023-01-19T05:45:13.953Z,92.98
2023-01-19T05:50:12.594Z,93.26
2023-01-19T05:55:07.725Z,92.76
2023-01-19T05:57:35.110Z,92.69
2023-01-19T06:00:02.065Z,92.91
2023-01-19T06:02:30.139Z,92.69
2023-01-19T06:04:57.279Z,93.12
2023-01-19T06:07:25.305Z,93.06
2023-01-19T06:12:31.615Z,92.62
2023-01-19T06:14:58.818Z,92.65
2023-01-19T06:17:33.809Z,93.21
2023-01-19T06:20:05.222Z,93.12
2023-01-19T06:22:33.619Z,92.87
2023-01-19T06:25:13.170Z,92.59
2023-01-19T06:27:49.472Z,92.81
2023-01-19T06:30:19.476Z,93.03
2023-01-19T06:32:48.736Z,92.89
2023-01-19T06:35:30.328Z,92.26
2023-01-19T06:37:57.554Z,92.46
2023-01-19T06:40:24.501Z,93.11
2023-01-19T06:42:56.925Z,92.67
2023-01-19T06:45:24.619Z,92.98
2023-01-19T06:47:52.836Z,92.63
2023-01-19T06:50:22.480Z,92.83
2023-01-19T06:52:53.133Z,93.28
2023-01-19T06:55:20.077Z,93.05
2023-01-19T06:57:58.737Z,92.99
2023-01-19T07:00:29.311Z,92.47
2023-01-19T07:02:57.682Z,92.79
2023-01-19T07:05:25.044Z,93.06
2023-01-19T07:07:56.255Z,92.95
2023-01-19T07:10:24.689Z,92.99
2023-01-19T07:12:53.801Z,93.62
2023-01-19T07:15:21.866Z,92.91
2023-01-19T07:17:48.998Z,93.54
2023-01-19T07:21:01.278Z,93.17
2023-01-19T07:23:34.271Z,92.99
2023-01-19T07:26:02.044Z,93.16
2023-01-19T07:28:32.929Z,93.13
2023-01-19T07:31:01.693Z,93.46
2023-01-19T07:33:29.230Z,93.55
2023-01-19T07:35:58.349Z,93.97
2023-01-19T07:38:31.001Z,93.45
2023-01-19T07:41:03.704Z,93.87
2023-01-19T07:43:31.311Z,93.74
2023-01-19T07:46:02.501Z,93.26
2023-01-19T07:48:29.588Z,92.96
2023-01-19T07:53:42.205Z,93.13
2023-01-19T07:56:10.327Z,92.93
2023-01-19T07:58:37.760Z,93.04
2023-01-19T08:01:09.850Z,92.63
2023-01-19T08:03:44.498Z,92.80
2023-01-19T08:06:24.680Z,92.97
2023-01-19T08:08:54.801Z,93.18
2023-01-19T08:11:26.382Z,93.70
2023-01-19T08:13:59.452Z,93.39
2023-01-19T08:16:38.460Z,93.35
2023-01-19T08:19:28.721Z,93.50
2023-01-19T08:22:01.385Z,92.81
2023-01-19T08:24:29.371Z,92.66
2023-01-19T08:29:36.809Z,91.56
2023-01-19T08:32:08.674Z,90.82
2023-01-19T08:34:41.216Z,90.85
2023-01-19T08:44:36.580Z,90.17
2023-01-19T08:47:03.796Z,90.21
2023-01-19T08:49:34.080Z,89.51
2023-01-19T08:52:09.052Z,88.86
2023-01-19T08:54:39.805Z,89.45
2023-01-19T08:59:33.869Z,87.75
2023-01-19T09:02:01.015Z,88.08
2023-01-19T09:04:30.157Z,88.15
2023-01-19T09:07:01.400Z,87.74
2023-01-19T09:09:29.294Z,87.45
2023-01-19T09:14:28.655Z,87.58
2023-01-19T09:16:59.215Z,87.76
2023-01-19T09:19:26.286Z,86.91
2023-01-19T09:24:34.915Z,87.53
2023-01-19T09:29:44.031Z,87.96
2023-01-19T09:34:42.217Z,88.16
2023-01-19T09:39:43.582Z,87.65
2023-01-19T09:42:29.969Z,86.79
2023-01-19T09:45:05.088Z,86.16
2023-01-19T09:47:50.916Z,85.73
2023-01-19T09:51:09.596Z,85.58
2023-01-19T09:56:20.886Z,84.89
2023-01-19T09:58:51.363Z,85.17
2023-01-19T10:01:27.212Z,84.56
2023-01-19T10:04:24.110Z,83.04
2023-01-19T10:07:09.317Z,83.48
2023-01-19T10:10:01.316Z,83.77
2023-01-19T10:12:46.714Z,82.56
2023-01-19T10:15:46.862Z,82.60
2023-01-19T10:21:31.661Z,81.97
2023-01-19T10:24:28.037Z,82.05
2023-01-19T10:29:37.980Z,82.65
2023-01-19T10:32:22.228Z,82.57
2023-01-19T10:34:52.615Z,81.96
2023-01-19T10:37:42.413Z,82.83
2023-01-19T10:40:30.907Z,82.36
2023-01-19T10:43:03.317Z,81.88
2023-01-19T10:45:36.602Z,82.62
2023-01-19T10:48:16.091Z,83.13
2023-01-19T10:50:45.810Z,82.66
2023-01-19T10:53:25.829Z,82.49
2023-01-19T10:58:44.487Z,83.10
2023-01-19T11:01:28.895Z,82.61
2023-01-19T11:04:11.469Z,82.01
2023-01-19T11:06:41.606Z,82.96
2023-01-19T11:09:20.159Z,82.71
2023-01-19T11:11:53.800Z,81.11
2023-01-19T11:14:33.480Z,81.46
2023-01-19T11:17:00.717Z,81.29
2023-01-19T11:19:33.896Z,82.46
2023-01-19T11:22:25.973Z,82.73
2023-01-19T11:24:55.473Z,82.11
2023-01-19T11:27:35.614Z,81.05
2023-01-19T11:30:21.796Z,79.58
2023-01-19T11:35:40.735Z,78.63
2023-01-19T11:38:23.512Z,78.24
2023-01-19T11:40:56.677Z,78.86
2023-01-19T11:43:48.259Z,78.27
2023-01-19T11:46:20.080Z,78.40
2023-01-19T11:48:57.426Z,79.04
2023-01-19T11:51:40.214Z,77.74
2023-01-19T11:54:20.114Z,78.04
2023-01-19T11:56:49.233Z,79.03
2023-01-19T11:59:19.338Z,78.49
2023-01-19T12:01:59.703Z,77.50
2023-01-19T12:04:37.301Z,78.22
2023-01-19T12:09:47.434Z,78.32
2023-01-19T12:12:43.603Z,78.59
2023-01-19T12:15:22.893Z,78.32
2023-01-19T12:17:52.297Z,79.21
2023-01-19T12:20:43.199Z,79.79
2023-01-19T12:26:01.551Z,78.96
2023-01-19T12:31:04.083Z,79.69
2023-01-19T12:33:49.395Z,79.33
2023-01-19T12:36:38.147Z,80.74
2023-01-19T12:39:29.386Z,80.83
2023-01-19T12:42:16.919Z,81.40
2023-01-19T12:44:46.927Z,81.61
2023-01-19T12:47:15.597Z,81.39
2023-01-19T12:49:46.127Z,79.58
2023-01-19T12:53:01.681Z,78.93
2023-01-19T12:55:39.207Z,78.36
2023-01-19T12:58:29.618Z,77.78
2023-01-19T13:01:19.131Z,77.46
2023-01-19T13:04:01.572Z,77.37
2023-01-19T13:06:47.932Z,76.09
2023-01-19T13:09:33.836Z,77.94
2023-01-19T13:12:15.706Z,77.53
2023-01-19T13:14:45.240Z,74.76
2023-01-19T13:17:36.359Z,74.15
2023-01-19T13:20:23.057Z,75.55
2023-01-19T13:23:17.795Z,75.76
2023-01-19T13:28:30.855Z,76.65
2023-01-19T13:31:07.341Z,75.76
2023-01-19T13:33:50.064Z,75.86
2023-01-19T13:36:42.094Z,74.38
2023-01-19T13:39:27.056Z,74.22
2023-01-19T13:42:04.820Z,74.05
2023-01-19T13:44:53.985Z,74.41
2023-01-19T13:47:54.599Z,75.32
2023-01-19T13:50:32.420Z,74.56
2023-01-19T13:52:59.372Z,74.64
2023-01-19T13:55:31.105Z,75.19
2023-01-19T13:58:01.592Z,74.92
2023-01-19T14:00:31.451Z,75.45
2023-01-19T14:05:46.849Z,75.41
2023-01-19T14:08:15.395Z,76.44
2023-01-19T14:11:02.451Z,75.40
2023-01-19T14:16:07.881Z,75.99
2023-01-19T14:18:36.610Z,75.54
2023-01-19T14:23:51.598Z,75.47
2023-01-19T14:26:43.738Z,76.95
2023-01-19T14:32:03.482Z,76.61
2023-01-19T14:37:38.222Z,75.84
2023-01-19T14:42:39.563Z,75.97
2023-01-19T14:45:16.974Z,75.52
2023-01-19T14:47:48.457Z,76.49
2023-01-19T14:50:31.027Z,76.04
2023-01-19T14:55:52.614Z,76.56
2023-01-19T14:58:25.432Z,76.83
2023-01-19T15:01:02.782Z,76.56
2023-01-19T15:03:44.030Z,77.10
2023-01-19T15:06:20.150Z,77.39
2023-01-19T15:08:53.165Z,77.56
2023-01-19T15:11:35.303Z,77.50
2023-01-19T15:14:05.249Z,78.36
2023-01-19T15:16:34.362Z,77.92
2023-01-19T15:21:35.850Z,77.69
2023-01-19T15:24:05.303Z,78.17
2023-01-19T15:26:41.215Z,77.95
2023-01-19T15:29:27.113Z,78.94
2023-01-19T15:32:04.086Z,79.03
2023-01-19T15:34:47.237Z,79.83
2023-01-19T15:37:14.227Z,79.54
2023-01-19T15:39:46.960Z,79.81
2023-01-19T15:42:16.615Z,80.08
2023-01-19T15:44:46.023Z,80.00
2023-01-19T15:47:35.678Z,80.34
2023-01-19T15:50:02.823Z,80.18
2023-01-19T15:52:37.886Z,80.45
2023-01-19T15:57:46.502Z,80.55
2023-01-19T16:00:16.854Z,80.39
2023-01-19T16:03:03.203Z,80.58
2023-01-19T16:05:42.925Z,80.32
2023-01-19T16:08:17.726Z,80.44
2023-01-19T16:10:49.309Z,80.02
2023-01-19T16:13:20.457Z,80.49
2023-01-19T16:15:51.050Z,79.81
2023-01-19T16:18:24.980Z,79.77
2023-01-19T16:20:54.455Z,80.08
2023-01-19T16:23:29.494Z,79.60
2023-01-19T16:26:07.615Z,78.98
2023-01-19T16:28:49.314Z,79.34
2023-01-19T16:31:20.471Z,78.96
2023-01-19T16:33:50.631Z,78.65
2023-01-19T16:36:33.353Z,78.31
2023-01-19T16:39:04.818Z,78.59
2023-01-19T16:41:37.064Z,78.26
2023-01-19T16:46:36.836Z,78.66
2023-01-19T16:49:28.563Z,78.53
2023-01-19T16:51:58.602Z,78.36
2023-01-19T16:54:27.107Z,78.63
2023-01-19T17:02:37.429Z,78.22
2023-01-19T17:05:05.143Z,77.84
2023-01-19T17:10:01.585Z,77.61
2023-01-19T17:12:35.861Z,78.08
2023-01-19T17:15:23.738Z,77.70
2023-01-19T17:17:50.906Z,77.64
2023-01-19T17:20:40.423Z,77.94
2023-01-19T17:25:55.936Z,77.79
2023-01-19T17:28:36.647Z,77.47
2023-01-19T17:33:40.727Z,77.73
2023-01-19T17:38:37.853Z,77.93
2023-01-19T17:41:25.814Z,78.22
2023-01-19T17:44:16.113Z,77.47
2023-01-19T17:47:00.385Z,77.58
2023-01-19T17:49:32.428Z,78.37
2023-01-19T17:52:01.934Z,77.54
2023-01-19T17:54:31.324Z,78.51
2023-01-19T17:56:58.561Z,77.65
2023-01-19T17:59:30.302Z,78.01
2023-01-19T18:02:14.004Z,78.26
2023-01-19T18:04:46.717Z,78.59
2023-01-19T18:07:28.874Z,78.51
2023-01-19T18:10:01.458Z,79.00
2023-01-19T18:12:31.554Z,78.90
2023-01-19T18:15:05.895Z,78.67
2023-01-19T18:18:18.799Z,78.91
2023-01-19T18:21:25.672Z,78.80
2023-01-19T18:24:02.391Z,78.76
2023-01-19T18:26:30.828Z,78.87
2023-01-19T18:29:06.095Z,78.84
2023-01-19T18:31:36.839Z,79.11
2023-01-19T18:34:04.052Z,78.89
2023-01-19T18:36:42.464Z,79.06
2023-01-19T18:39:16.600Z,79.52
2023-01-19T18:41:43.931Z,80.16
2023-01-19T18:44:15.490Z,79.59
2023-01-19T18:46:43.323Z,79.16
2023-01-19T18:51:48.467Z,79.21
2023-01-19T18:54:18.337Z,78.97
2023-01-19T18:56:45.581Z,79.26
2023-01-19T18:59:24.808Z,79.55
2023-01-19T19:01:54.497Z,79.27
2023-01-19T19:04:22.072Z,79.26
2023-01-19T19:06:49.880Z,79.10
2023-01-19T19:09:29.645Z,79.45
2023-01-19T19:12:00.385Z,79.24
2023-01-19T19:14:29.381Z,79.43
2023-01-19T19:16:59.067Z,79.27
2023-01-19T19:19:26.121Z,79.36
2023-01-19T19:24:26.046Z,80.02
2023-01-19T19:29:22.207Z,79.66
2023-01-19T19:31:54.421Z,79.38
2023-01-19T19:34:21.401Z,79.45
2023-01-19T19:36:49.655Z,79.36
2023-01-19T19:39:39.495Z,79.82
2023-01-19T19:44:35.952Z,79.55
2023-01-19T19:47:05.718Z,79.31
2023-01-19T19:49:35.838Z,78.84
2023-01-19T19:52:05.111Z,79.33
2023-01-19T19:54:32.092Z,79.24
2023-01-19T19:56:58.904Z,79.48
2023-01-19T19:59:28.584Z,78.92
2023-01-19T20:01:55.604Z,79.82
2023-01-19T20:04:25.662Z,79.47
2023-01-19T20:06:57.864Z,79.47
2023-01-19T20:09:30.258Z,79.57
2023-01-19T20:11:57.367Z,79.43
2023-01-19T20:14:32.382Z,79.24
2023-01-19T20:17:06.758Z,79.43
2023-01-19T20:19:36.880Z,79.57
2023-01-19T20:22:03.889Z,79.51
2023-01-19T20:24:31.945Z,78.99
2023-01-19T20:27:02.257Z,79.00
2023-01-19T20:29:29.780Z,79.10
2023-01-19T20:31:56.922Z,78.59
2023-01-19T20:34:33.036Z,79.29
2023-01-19T20:37:01.891Z,79.35
2023-01-19T20:39:34.220Z,79.52
2023-01-19T20:42:01.634Z,79.92
2023-01-19T20:44:30.442Z,79.47
2023-01-19T20:46:59.278Z,79.77
2023-01-19T20:49:26.334Z,79.84
2023-01-19T20:51:55.676Z,79.85
2023-01-19T20:54:31.005Z,79.85
2023-01-19T20:56:58.031Z,80.20
2023-01-19T20:59:25.042Z,80.00
2023-01-19T21:01:53.628Z,80.74
2023-01-19T21:04:28.385Z,80.82
2023-01-19T21:07:00.068Z,80.35
2023-01-19T21:09:31.962Z,80.12
2023-01-19T21:12:01.942Z,79.88
2023-01-19T21:14:29.078Z,80.04
2023-01-19T21:16:58.530Z,80.10
2023-01-19T21:19:28.221Z,79.94
2023-01-19T21:21:55.860Z,80.63
2023-01-19T21:24:22.838Z,80.47
2023-01-19T21:26:52.808Z,80.22
2023-01-19T21:29:19.643Z,80.85
2023-01-19T21:31:54.171Z,80.87
2023-01-19T21:34:21.268Z,80.83
2023-01-19T21:36:53.494Z,80.44
2023-01-19T21:39:20.611Z,80.10
2023-01-19T21:41:50.685Z,80.14
2023-01-19T21:46:47.193Z,80.45
2023-01-19T21:49:31.662Z,80.20
2023-01-19T21:52:01.348Z,80.52
2023-01-19T21:54:32.495Z,80.45
2023-01-19T21:57:02.942Z,80.71
2023-01-19T21:59:31.995Z,80.60
2023-01-19T22:01:59.499Z,80.15
2023-01-19T22:04:26.513Z,80.51
2023-01-19T22:06:55.943Z,80.84
2023-01-19T22:09:22.797Z,80.68
2023-01-19T22:11:49.650Z,80.83
2023-01-19T22:14:19.010Z,80.91
2023-01-19T22:16:45.841Z,80.82
2023-01-19T22:19:18.503Z,80.86
2023-01-19T22:21:45.268Z,80.62
2023-01-19T22:24:12.931Z,80.83
2023-01-19T22:26:42.220Z,80.48
2023-01-19T22:29:11.377Z,80.69
2023-01-19T22:31:39.423Z,80.89
2023-01-19T22:36:39.584Z,81.07
2023-01-19T22:39:09.253Z,80.73
2023-01-19T22:41:44.163Z,80.65
2023-01-19T22:44:21.019Z,80.37
2023-01-19T22:47:00.714Z,80.16
2023-01-19T22:49:27.841Z,80.24
2023-01-19T22:51:56.206Z,80.52
2023-01-19T22:54:23.379Z,80.48
2023-01-19T22:56:50.216Z,80.72
2023-01-19T22:59:17.068Z,80.70
2023-01-19T23:01:44.625Z,81.03
2023-01-19T23:04:15.879Z,80.83
2023-01-19T23:06:43.436Z,80.82
2023-01-19T23:09:12.662Z,81.14
2023-01-19T23:11:44.606Z,81.47
2023-01-19T23:14:15.096Z,81.25
2023-01-19T23:16:42.307Z,81.34
2023-01-19T23:19:14.187Z,81.52
2023-01-19T23:21:41.744Z,81.53
2023-01-19T23:24:29.669Z,81.70
2023-01-19T23:27:02.437Z,82.03
2023-01-19T23:29:29.204Z,81.82
2023-01-19T23:31:56.991Z,81.95
2023-01-19T23:34:23.921Z,82.49
2023-01-19T23:36:50.747Z,81.95
2023-01-19T23:41:51.179Z,82.33
2023-01-19T23:44:20.928Z,82.03
2023-01-19T23:46:48.851Z,82.10
2023-01-19T23:49:18.060Z,81.88
2023-01-19T23:51:45.058Z,81.92
2023-01-19T23:56:39.758Z,81.91
